Conroe's Hourly Summary for Thursday, March 16, 2017
Hour Temp
(f)
RH
(%)
Solar Rad.
(MJ/m2)
Rainfall
(in)
Wind
(mph)
3/16/2017 12:00 AM 52 79 0 0 2.12
3/16/2017 1:00 AM 52 78 0 0 2.82
3/16/2017 2:00 AM 51 83 0 0 2.65
3/16/2017 3:00 AM 51 85 0 0 1.73
3/16/2017 4:00 AM 53 81 0 0 3.24
3/16/2017 5:00 AM 54 81 0 0 3.31
3/16/2017 6:00 AM 54 81 0 0 3.97
3/16/2017 7:00 AM 55 81 0.01 0 3.62
3/16/2017 8:00 AM 56 79 0.12 0 4.03
3/16/2017 9:00 AM 58 78 0.27 0 3.87
3/16/2017 10:00 AM 60 74 0.57 0 4.3
3/16/2017 11:00 AM 64 70 1.13 0 4.86
3/16/2017 12:00 PM 67 65 1.67 0 5.58
3/16/2017 1:00 PM 70 64 1.35 0 5.1
3/16/2017 2:00 PM 72 58 1.72 0 5.38
3/16/2017 3:00 PM 72 60 1.05 0 5.44
3/16/2017 4:00 PM 71 62 0.68 0 5.47
3/16/2017 5:00 PM 71 66 0.52 0 5.12
3/16/2017 6:00 PM 69 71 0.22 0 4.75
3/16/2017 7:00 PM 68 74 0.02 0 4.43
3/16/2017 8:00 PM 67 77 0 0 3.63
3/16/2017 9:00 PM 67 76 0 0 3.53
3/16/2017 10:00 PM 67 77 0 0 3.8
3/16/2017 11:00 PM 66 80 0 0 2.49
Data Summary 61 74 9.33 0.00 3.97